sensor_id;sensor_type;location;lat;lon;timestamp;P1;durP1;ratioP1;P2;durP2;ratioP2
77769;SDS011;66961;51.482;9.160;2023-09-18T00:02:23;12.95;;;8.23;;
77769;SDS011;66961;51.482;9.160;2023-09-18T00:04:48;12.85;;;7.97;;
77769;SDS011;66961;51.482;9.160;2023-09-18T00:07:13;11.73;;;8.23;;
77769;SDS011;66961;51.482;9.160;2023-09-18T00:09:39;11.95;;;8.52;;
77769;SDS011;66961;51.482;9.160;2023-09-18T00:12:04;13.30;;;9.00;;
77769;SDS011;66961;51.482;9.160;2023-09-18T00:14:30;12.02;;;8.57;;
77769;SDS011;66961;51.482;9.160;2023-09-18T00:16:55;13.87;;;7.87;;
77769;SDS011;66961;51.482;9.160;2023-09-18T00:19:20;14.00;;;8.20;;
77769;SDS011;66961;51.482;9.160;2023-09-18T00:21:46;12.83;;;8.77;;
77769;SDS011;66961;51.482;9.160;2023-09-18T00:24:11;11.43;;;8.57;;
77769;SDS011;66961;51.482;9.160;2023-09-18T00:26:36;11.47;;;8.30;;
77769;SDS011;66961;51.482;9.160;2023-09-18T00:29:01;12.82;;;8.82;;
77769;SDS011;66961;51.482;9.160;2023-09-18T00:31:27;12.05;;;8.68;;
77769;SDS011;66961;51.482;9.160;2023-09-18T00:33:52;14.63;;;9.27;;
77769;SDS011;66961;51.482;9.160;2023-09-18T00:36:17;14.07;;;9.00;;
77769;SDS011;66961;51.482;9.160;2023-09-18T00:38:43;12.87;;;8.77;;
77769;SDS011;66961;51.482;9.160;2023-09-18T00:41:08;13.53;;;9.97;;
77769;SDS011;66961;51.482;9.160;2023-09-18T00:43:33;12.80;;;9.67;;
77769;SDS011;66961;51.482;9.160;2023-09-18T00:45:58;13.23;;;9.93;;
77769;SDS011;66961;51.482;9.160;2023-09-18T00:48:24;15.02;;;10.77;;
77769;SDS011;66961;51.482;9.160;2023-09-18T00:50:50;11.80;;;9.48;;
77769;SDS011;66961;51.482;9.160;2023-09-18T00:53:20;13.50;;;10.57;;
77769;SDS011;66961;51.482;9.160;2023-09-18T00:55:47;14.82;;;9.95;;
77769;SDS011;66961;51.482;9.160;2023-09-18T00:58:14;14.27;;;10.25;;
77769;SDS011;66961;51.482;9.160;2023-09-18T01:00:40;16.10;;;10.43;;
77769;SDS011;66961;51.482;9.160;2023-09-18T01:03:05;16.10;;;10.88;;
77769;SDS011;66961;51.482;9.160;2023-09-18T01:05:34;16.38;;;11.35;;
77769;SDS011;66961;51.482;9.160;2023-09-18T01:07:59;16.40;;;10.68;;
77769;SDS011;66961;51.482;9.160;2023-09-18T01:10:25;12.90;;;9.97;;
77769;SDS011;66961;51.482;9.160;2023-09-18T01:13:08;18.45;;;11.43;;
77769;SDS011;66961;51.482;9.160;2023-09-18T01:15:44;15.05;;;10.13;;
77769;SDS011;66961;51.482;9.160;2023-09-18T01:18:48;14.88;;;10.40;;
77769;SDS011;66961;51.482;9.160;2023-09-18T01:21:18;15.35;;;10.95;;
77769;SDS011;66961;51.482;9.160;2023-09-18T01:23:44;15.50;;;10.50;;
77769;SDS011;66961;51.482;9.160;2023-09-18T01:26:09;14.73;;;10.80;;
77769;SDS011;66961;51.482;9.160;2023-09-18T01:28:34;15.50;;;10.40;;
77769;SDS011;66961;51.482;9.160;2023-09-18T01:31:00;13.57;;;10.07;;
77769;SDS011;66961;51.482;9.160;2023-09-18T01:33:25;16.20;;;11.70;;
77769;SDS011;66961;51.482;9.160;2023-09-18T01:35:53;13.10;;;9.75;;
77769;SDS011;66961;51.482;9.160;2023-09-18T01:38:20;13.82;;;10.25;;
77769;SDS011;66961;51.482;9.160;2023-09-18T01:40:47;14.93;;;10.60;;
77769;SDS011;66961;51.482;9.160;2023-09-18T01:43:13;15.32;;;10.07;;
77769;SDS011;66961;51.482;9.160;2023-09-18T01:45:38;13.75;;;9.98;;
77769;SDS011;66961;51.482;9.160;2023-09-18T01:48:05;14.02;;;10.45;;
77769;SDS011;66961;51.482;9.160;2023-09-18T01:50:30;16.90;;;11.40;;
77769;SDS011;66961;51.482;9.160;2023-09-18T01:52:55;14.57;;;11.07;;
77769;SDS011;66961;51.482;9.160;2023-09-18T01:55:21;16.80;;;12.50;;
77769;SDS011;66961;51.482;9.160;2023-09-18T01:57:46;20.00;;;13.27;;
77769;SDS011;66961;51.482;9.160;2023-09-18T02:00:11;17.67;;;12.93;;
77769;SDS011;66961;51.482;9.160;2023-09-18T02:02:37;16.83;;;12.07;;
77769;SDS011;66961;51.482;9.160;2023-09-18T02:05:03;17.35;;;11.45;;
77769;SDS011;66961;51.482;9.160;2023-09-18T02:07:28;16.70;;;11.48;;
77769;SDS011;66961;51.482;9.160;2023-09-18T02:09:53;15.43;;;11.17;;
77769;SDS011;66961;51.482;9.160;2023-09-18T02:12:19;15.03;;;10.47;;
77769;SDS011;66961;51.482;9.160;2023-09-18T02:14:47;14.30;;;10.50;;
77769;SDS011;66961;51.482;9.160;2023-09-18T02:17:12;16.50;;;10.82;;
77769;SDS011;66961;51.482;9.160;2023-09-18T02:19:37;15.37;;;10.57;;
77769;SDS011;66961;51.482;9.160;2023-09-18T02:22:03;15.17;;;10.50;;
77769;SDS011;66961;51.482;9.160;2023-09-18T02:24:28;15.13;;;11.45;;
77769;SDS011;66961;51.482;9.160;2023-09-18T02:26:54;15.05;;;10.35;;
77769;SDS011;66961;51.482;9.160;2023-09-18T02:29:19;14.23;;;10.10;;
77769;SDS011;66961;51.482;9.160;2023-09-18T02:31:44;17.33;;;10.80;;
77769;SDS011;66961;51.482;9.160;2023-09-18T02:34:09;12.90;;;9.30;;
77769;SDS011;66961;51.482;9.160;2023-09-18T02:36:35;13.00;;;9.53;;
77769;SDS011;66961;51.482;9.160;2023-09-18T02:39:00;15.20;;;9.10;;
77769;SDS011;66961;51.482;9.160;2023-09-18T02:41:25;14.10;;;9.77;;
77769;SDS011;66961;51.482;9.160;2023-09-18T02:43:51;12.73;;;9.35;;
77769;SDS011;66961;51.482;9.160;2023-09-18T02:46:16;14.33;;;10.50;;
77769;SDS011;66961;51.482;9.160;2023-09-18T02:48:41;13.55;;;9.88;;
77769;SDS011;66961;51.482;9.160;2023-09-18T02:51:08;15.57;;;9.32;;
77769;SDS011;66961;51.482;9.160;2023-09-18T02:53:33;12.40;;;8.98;;
77769;SDS011;66961;51.482;9.160;2023-09-18T02:55:59;13.75;;;10.90;;
77769;SDS011;66961;51.482;9.160;2023-09-18T02:58:24;14.02;;;9.63;;
77769;SDS011;66961;51.482;9.160;2023-09-18T03:00:50;12.57;;;9.85;;
77769;SDS011;66961;51.482;9.160;2023-09-18T03:03:16;16.40;;;9.40;;
77769;SDS011;66961;51.482;9.160;2023-09-18T03:05:42;13.93;;;8.77;;
77769;SDS011;66961;51.482;9.160;2023-09-18T03:08:08;11.93;;;9.13;;
77769;SDS011;66961;51.482;9.160;2023-09-18T03:10:34;12.55;;;8.45;;
77769;SDS011;66961;51.482;9.160;2023-09-18T03:13:01;10.88;;;8.48;;
77769;SDS011;66961;51.482;9.160;2023-09-18T03:15:27;9.73;;;7.97;;
77769;SDS011;66961;51.482;9.160;2023-09-18T03:17:53;13.38;;;8.85;;
77769;SDS011;66961;51.482;9.160;2023-09-18T03:20:18;12.27;;;8.73;;
77769;SDS011;66961;51.482;9.160;2023-09-18T03:22:43;17.15;;;10.30;;
77769;SDS011;66961;51.482;9.160;2023-09-18T03:25:09;13.10;;;9.60;;
77769;SDS011;66961;51.482;9.160;2023-09-18T03:27:34;13.57;;;9.77;;
77769;SDS011;66961;51.482;9.160;2023-09-18T03:29:59;13.37;;;9.43;;
77769;SDS011;66961;51.482;9.160;2023-09-18T03:32:24;14.93;;;9.73;;
77769;SDS011;66961;51.482;9.160;2023-09-18T03:34:53;14.77;;;10.20;;
77769;SDS011;66961;51.482;9.160;2023-09-18T03:37:18;14.38;;;9.52;;
77769;SDS011;66961;51.482;9.160;2023-09-18T03:39:44;13.68;;;8.75;;
77769;SDS011;66961;51.482;9.160;2023-09-18T03:42:09;12.40;;;8.87;;
77769;SDS011;66961;51.482;9.160;2023-09-18T03:44:34;13.30;;;9.33;;
77769;SDS011;66961;51.482;9.160;2023-09-18T03:46:59;14.30;;;8.80;;
77769;SDS011;66961;51.482;9.160;2023-09-18T03:49:25;12.10;;;9.43;;
77769;SDS011;66961;51.482;9.160;2023-09-18T03:51:51;12.18;;;8.48;;
77769;SDS011;66961;51.482;9.160;2023-09-18T03:54:16;10.90;;;8.20;;
77769;SDS011;66961;51.482;9.160;2023-09-18T03:56:41;11.53;;;7.97;;
77769;SDS011;66961;51.482;9.160;2023-09-18T03:59:07;11.47;;;8.47;;
77769;SDS011;66961;51.482;9.160;2023-09-18T04:01:32;8.30;;;7.17;;
77769;SDS011;66961;51.482;9.160;2023-09-18T04:03:57;8.97;;;7.90;;
77769;SDS011;66961;51.482;9.160;2023-09-18T04:06:22;8.17;;;7.17;;
77769;SDS011;66961;51.482;9.160;2023-09-18T04:08:48;9.10;;;7.57;;
77769;SDS011;66961;51.482;9.160;2023-09-18T04:11:13;8.83;;;7.33;;
77769;SDS011;66961;51.482;9.160;2023-09-18T04:13:38;8.87;;;7.30;;
77769;SDS011;66961;51.482;9.160;2023-09-18T04:16:04;11.17;;;7.43;;
77769;SDS011;66961;51.482;9.160;2023-09-18T04:18:29;9.40;;;7.40;;
77769;SDS011;66961;51.482;9.160;2023-09-18T04:20:54;10.70;;;7.60;;
77769;SDS011;66961;51.482;9.160;2023-09-18T04:23:24;9.33;;;7.93;;
77769;SDS011;66961;51.482;9.160;2023-09-18T04:25:51;11.05;;;8.27;;
77769;SDS011;66961;51.482;9.160;2023-09-18T04:28:18;11.25;;;8.38;;
77769;SDS011;66961;51.482;9.160;2023-09-18T04:30:45;13.20;;;8.85;;
77769;SDS011;66961;51.482;9.160;2023-09-18T04:33:11;13.65;;;7.78;;
77769;SDS011;66961;51.482;9.160;2023-09-18T04:35:36;9.63;;;7.50;;
77769;SDS011;66961;51.482;9.160;2023-09-18T04:38:02;11.63;;;7.40;;
77769;SDS011;66961;51.482;9.160;2023-09-18T04:40:27;10.23;;;7.75;;
77769;SDS011;66961;51.482;9.160;2023-09-18T04:42:52;9.67;;;7.90;;
77769;SDS011;66961;51.482;9.160;2023-09-18T04:45:18;10.97;;;8.10;;
77769;SDS011;66961;51.482;9.160;2023-09-18T04:47:43;9.52;;;7.60;;
77769;SDS011;66961;51.482;9.160;2023-09-18T04:50:08;10.52;;;8.00;;
77769;SDS011;66961;51.482;9.160;2023-09-18T04:52:34;11.63;;;7.97;;
77769;SDS011;66961;51.482;9.160;2023-09-18T04:54:59;12.07;;;8.73;;
77769;SDS011;66961;51.482;9.160;2023-09-18T04:57:24;12.83;;;9.73;;
77769;SDS011;66961;51.482;9.160;2023-09-18T04:59:50;10.57;;;8.50;;
77769;SDS011;66961;51.482;9.160;2023-09-18T05:02:15;11.30;;;8.95;;
77769;SDS011;66961;51.482;9.160;2023-09-18T05:04:40;10.70;;;8.70;;
77769;SDS011;66961;51.482;9.160;2023-09-18T05:07:06;11.30;;;8.73;;
77769;SDS011;66961;51.482;9.160;2023-09-18T05:09:31;10.60;;;8.20;;
77769;SDS011;66961;51.482;9.160;2023-09-18T05:11:56;12.00;;;8.10;;
77769;SDS011;66961;51.482;9.160;2023-09-18T05:14:21;12.73;;;8.27;;
77769;SDS011;66961;51.482;9.160;2023-09-18T05:16:47;10.13;;;7.40;;
77769;SDS011;66961;51.482;9.160;2023-09-18T05:19:12;9.37;;;7.70;;
77769;SDS011;66961;51.482;9.160;2023-09-18T05:21:37;9.87;;;7.07;;
77769;SDS011;66961;51.482;9.160;2023-09-18T05:24:02;8.60;;;6.23;;
77769;SDS011;66961;51.482;9.160;2023-09-18T05:26:28;7.50;;;5.88;;
77769;SDS011;66961;51.482;9.160;2023-09-18T05:28:53;9.27;;;6.13;;
77769;SDS011;66961;51.482;9.160;2023-09-18T05:31:18;6.20;;;4.87;;
77769;SDS011;66961;51.482;9.160;2023-09-18T05:33:44;7.07;;;4.83;;
77769;SDS011;66961;51.482;9.160;2023-09-18T05:36:09;8.23;;;4.63;;
77769;SDS011;66961;51.482;9.160;2023-09-18T05:38:34;11.18;;;4.25;;
77769;SDS011;66961;51.482;9.160;2023-09-18T05:41:00;6.33;;;3.73;;
77769;SDS011;66961;51.482;9.160;2023-09-18T05:43:25;7.67;;;4.30;;
77769;SDS011;66961;51.482;9.160;2023-09-18T05:45:50;10.00;;;4.30;;
77769;SDS011;66961;51.482;9.160;2023-09-18T05:48:15;8.50;;;4.07;;
77769;SDS011;66961;51.482;9.160;2023-09-18T05:50:41;9.90;;;3.90;;
77769;SDS011;66961;51.482;9.160;2023-09-18T05:53:06;5.73;;;3.57;;
77769;SDS011;66961;51.482;9.160;2023-09-18T05:55:32;7.53;;;3.70;;
77769;SDS011;66961;51.482;9.160;2023-09-18T05:58:00;9.95;;;4.00;;
77769;SDS011;66961;51.482;9.160;2023-09-18T06:00:26;9.23;;;4.13;;
77769;SDS011;66961;51.482;9.160;2023-09-18T06:02:52;8.43;;;3.60;;
77769;SDS011;66961;51.482;9.160;2023-09-18T06:05:17;6.53;;;3.53;;
77769;SDS011;66961;51.482;9.160;2023-09-18T06:07:43;4.90;;;3.42;;
77769;SDS011;66961;51.482;9.160;2023-09-18T06:10:08;7.28;;;3.40;;
77769;SDS011;66961;51.482;9.160;2023-09-18T06:12:34;8.30;;;3.65;;
77769;SDS011;66961;51.482;9.160;2023-09-18T06:14:59;8.15;;;3.67;;
77769;SDS011;66961;51.482;9.160;2023-09-18T06:17:24;7.13;;;3.37;;
77769;SDS011;66961;51.482;9.160;2023-09-18T06:19:50;4.50;;;3.50;;
77769;SDS011;66961;51.482;9.160;2023-09-18T06:22:15;8.53;;;3.43;;
77769;SDS011;66961;51.482;9.160;2023-09-18T06:24:42;8.20;;;3.90;;
77769;SDS011;66961;51.482;9.160;2023-09-18T06:27:07;7.50;;;3.53;;
77769;SDS011;66961;51.482;9.160;2023-09-18T06:29:33;11.33;;;3.90;;
77769;SDS011;66961;51.482;9.160;2023-09-18T06:31:59;7.72;;;3.58;;
77769;SDS011;66961;51.482;9.160;2023-09-18T06:34:25;6.85;;;3.40;;
77769;SDS011;66961;51.482;9.160;2023-09-18T06:36:50;8.00;;;3.30;;
77769;SDS011;66961;51.482;9.160;2023-09-18T06:39:15;9.20;;;3.35;;
77769;SDS011;66961;51.482;9.160;2023-09-18T06:41:41;6.63;;;3.03;;
77769;SDS011;66961;51.482;9.160;2023-09-18T06:44:06;8.47;;;3.97;;
77769;SDS011;66961;51.482;9.160;2023-09-18T06:46:31;8.68;;;3.67;;
77769;SDS011;66961;51.482;9.160;2023-09-18T06:48:57;10.10;;;3.58;;
77769;SDS011;66961;51.482;9.160;2023-09-18T06:51:23;8.45;;;3.38;;
77769;SDS011;66961;51.482;9.160;2023-09-18T06:53:48;6.78;;;3.30;;
77769;SDS011;66961;51.482;9.160;2023-09-18T06:56:13;7.72;;;3.42;;
77769;SDS011;66961;51.482;9.160;2023-09-18T06:58:38;10.17;;;3.13;;
77769;SDS011;66961;51.482;9.160;2023-09-18T07:01:04;10.05;;;3.13;;
77769;SDS011;66961;51.482;9.160;2023-09-18T07:03:29;8.98;;;3.22;;
77769;SDS011;66961;51.482;9.160;2023-09-18T07:05:55;7.80;;;3.30;;
77769;SDS011;66961;51.482;9.160;2023-09-18T07:08:20;10.40;;;3.90;;
77769;SDS011;66961;51.482;9.160;2023-09-18T07:10:45;7.93;;;3.33;;
77769;SDS011;66961;51.482;9.160;2023-09-18T07:13:10;8.57;;;3.20;;
77769;SDS011;66961;51.482;9.160;2023-09-18T07:15:36;7.63;;;3.20;;
77769;SDS011;66961;51.482;9.160;2023-09-18T07:18:01;9.00;;;3.10;;
77769;SDS011;66961;51.482;9.160;2023-09-18T07:20:26;6.40;;;3.17;;
77769;SDS011;66961;51.482;9.160;2023-09-18T07:22:52;6.55;;;3.78;;
77769;SDS011;66961;51.482;9.160;2023-09-18T07:25:17;8.93;;;3.13;;
77769;SDS011;66961;51.482;9.160;2023-09-18T07:27:42;8.40;;;2.70;;
77769;SDS011;66961;51.482;9.160;2023-09-18T07:30:08;11.23;;;3.22;;
77769;SDS011;66961;51.482;9.160;2023-09-18T07:32:33;5.28;;;2.40;;
77769;SDS011;66961;51.482;9.160;2023-09-18T07:34:58;12.20;;;3.30;;
77769;SDS011;66961;51.482;9.160;2023-09-18T07:37:24;10.43;;;3.20;;
77769;SDS011;66961;51.482;9.160;2023-09-18T07:39:49;9.70;;;2.73;;
77769;SDS011;66961;51.482;9.160;2023-09-18T07:42:14;9.73;;;3.40;;
77769;SDS011;66961;51.482;9.160;2023-09-18T07:44:39;9.73;;;3.23;;
77769;SDS011;66961;51.482;9.160;2023-09-18T07:47:05;9.87;;;2.50;;
77769;SDS011;66961;51.482;9.160;2023-09-18T07:49:30;9.23;;;2.73;;
77769;SDS011;66961;51.482;9.160;2023-09-18T07:51:55;13.67;;;3.47;;
77769;SDS011;66961;51.482;9.160;2023-09-18T07:54:21;7.73;;;3.30;;
77769;SDS011;66961;51.482;9.160;2023-09-18T07:56:46;4.95;;;3.05;;
77769;SDS011;66961;51.482;9.160;2023-09-18T07:59:11;6.67;;;2.83;;
77769;SDS011;66961;51.482;9.160;2023-09-18T08:01:36;7.03;;;3.10;;
77769;SDS011;66961;51.482;9.160;2023-09-18T08:04:02;8.87;;;3.50;;
77769;SDS011;66961;51.482;9.160;2023-09-18T08:06:27;6.68;;;2.72;;
77769;SDS011;66961;51.482;9.160;2023-09-18T08:08:52;10.93;;;2.97;;
77769;SDS011;66961;51.482;9.160;2023-09-18T08:11:18;8.77;;;2.83;;
77769;SDS011;66961;51.482;9.160;2023-09-18T08:13:43;8.77;;;2.90;;
77769;SDS011;66961;51.482;9.160;2023-09-18T08:16:08;8.80;;;3.17;;
77769;SDS011;66961;51.482;9.160;2023-09-18T08:18:34;6.90;;;3.20;;
77769;SDS011;66961;51.482;9.160;2023-09-18T08:20:59;7.97;;;2.70;;
77769;SDS011;66961;51.482;9.160;2023-09-18T08:23:25;7.63;;;2.70;;
77769;SDS011;66961;51.482;9.160;2023-09-18T08:25:50;4.00;;;2.10;;
77769;SDS011;66961;51.482;9.160;2023-09-18T08:28:15;10.80;;;2.75;;
77769;SDS011;66961;51.482;9.160;2023-09-18T08:30:40;8.52;;;3.35;;
77769;SDS011;66961;51.482;9.160;2023-09-18T08:33:06;6.43;;;2.50;;
77769;SDS011;66961;51.482;9.160;2023-09-18T08:35:31;9.67;;;2.33;;
77769;SDS011;66961;51.482;9.160;2023-09-18T08:37:56;8.27;;;3.00;;
77769;SDS011;66961;51.482;9.160;2023-09-18T08:40:22;8.00;;;2.67;;
77769;SDS011;66961;51.482;9.160;2023-09-18T08:42:48;9.48;;;3.00;;
77769;SDS011;66961;51.482;9.160;2023-09-18T08:45:25;8.50;;;2.92;;
77769;SDS011;66961;51.482;9.160;2023-09-18T08:47:59;7.25;;;2.83;;
77769;SDS011;66961;51.482;9.160;2023-09-18T08:50:25;10.05;;;2.80;;
77769;SDS011;66961;51.482;9.160;2023-09-18T08:52:53;9.93;;;3.30;;
77769;SDS011;66961;51.482;9.160;2023-09-18T08:55:19;5.03;;;2.80;;
77769;SDS011;66961;51.482;9.160;2023-09-18T08:57:45;5.25;;;2.53;;
77769;SDS011;66961;51.482;9.160;2023-09-18T09:00:11;9.43;;;2.90;;
77769;SDS011;66961;51.482;9.160;2023-09-18T09:02:37;6.65;;;3.20;;
77769;SDS011;66961;51.482;9.160;2023-09-18T09:05:02;6.10;;;3.03;;
77769;SDS011;66961;51.482;9.160;2023-09-18T09:07:28;7.18;;;2.65;;
77769;SDS011;66961;51.482;9.160;2023-09-18T09:09:53;7.68;;;3.08;;
77769;SDS011;66961;51.482;9.160;2023-09-18T09:12:46;11.07;;;2.70;;
77769;SDS011;66961;51.482;9.160;2023-09-18T09:15:23;11.15;;;2.80;;
77769;SDS011;66961;51.482;9.160;2023-09-18T09:18:06;6.40;;;2.42;;
77769;SDS011;66961;51.482;9.160;2023-09-18T09:20:33;6.93;;;2.50;;
77769;SDS011;66961;51.482;9.160;2023-09-18T09:23:02;8.77;;;2.53;;
77769;SDS011;66961;51.482;9.160;2023-09-18T09:25:29;6.97;;;2.47;;
77769;SDS011;66961;51.482;9.160;2023-09-18T09:27:56;8.63;;;2.70;;
77769;SDS011;66961;51.482;9.160;2023-09-18T09:30:23;9.68;;;2.83;;
77769;SDS011;66961;51.482;9.160;2023-09-18T09:32:51;7.88;;;2.78;;
77769;SDS011;66961;51.482;9.160;2023-09-18T09:35:28;8.10;;;2.65;;
77769;SDS011;66961;51.482;9.160;2023-09-18T09:37:57;6.75;;;2.40;;
77769;SDS011;66961;51.482;9.160;2023-09-18T09:40:24;5.72;;;2.63;;
77769;SDS011;66961;51.482;9.160;2023-09-18T09:42:54;7.63;;;2.38;;
77769;SDS011;66961;51.482;9.160;2023-09-18T09:47:45;7.17;;;2.40;;
77769;SDS011;66961;51.482;9.160;2023-09-18T09:52:41;8.73;;;3.10;;
77769;SDS011;66961;51.482;9.160;2023-09-18T09:57:59;10.60;;;2.88;;
77769;SDS011;66961;51.482;9.160;2023-09-18T10:00:26;8.35;;;2.30;;
77769;SDS011;66961;51.482;9.160;2023-09-18T10:02:57;8.35;;;2.20;;
77769;SDS011;66961;51.482;9.160;2023-09-18T10:05:24;5.10;;;2.22;;
77769;SDS011;66961;51.482;9.160;2023-09-18T10:07:52;7.28;;;2.42;;
77769;SDS011;66961;51.482;9.160;2023-09-18T10:10:19;10.05;;;3.25;;
77769;SDS011;66961;51.482;9.160;2023-09-18T10:12:44;7.70;;;2.38;;
77769;SDS011;66961;51.482;9.160;2023-09-18T10:15:11;7.07;;;2.78;;
77769;SDS011;66961;51.482;9.160;2023-09-18T10:17:37;4.72;;;2.13;;
77769;SDS011;66961;51.482;9.160;2023-09-18T10:20:08;5.07;;;2.30;;
77769;SDS011;66961;51.482;9.160;2023-09-18T10:22:40;9.32;;;2.45;;
77769;SDS011;66961;51.482;9.160;2023-09-18T10:25:17;6.93;;;2.20;;
77769;SDS011;66961;51.482;9.160;2023-09-18T10:27:47;7.72;;;2.25;;
77769;SDS011;66961;51.482;9.160;2023-09-18T10:30:13;4.43;;;2.15;;
77769;SDS011;66961;51.482;9.160;2023-09-18T10:32:42;6.05;;;2.58;;
77769;SDS011;66961;51.482;9.160;2023-09-18T10:35:09;6.88;;;2.10;;
77769;SDS011;66961;51.482;9.160;2023-09-18T10:37:36;4.35;;;2.28;;
77769;SDS011;66961;51.482;9.160;2023-09-18T10:40:02;7.70;;;2.13;;
77769;SDS011;66961;51.482;9.160;2023-09-18T10:42:29;5.22;;;2.15;;
77769;SDS011;66961;51.482;9.160;2023-09-18T10:44:56;7.95;;;1.92;;
77769;SDS011;66961;51.482;9.160;2023-09-18T10:47:22;5.03;;;2.22;;
77769;SDS011;66961;51.482;9.160;2023-09-18T10:49:48;10.32;;;2.08;;
77769;SDS011;66961;51.482;9.160;2023-09-18T10:52:14;7.22;;;2.03;;
77769;SDS011;66961;51.482;9.160;2023-09-18T10:54:39;6.72;;;2.15;;
77769;SDS011;66961;51.482;9.160;2023-09-18T10:57:04;8.23;;;2.20;;
77769;SDS011;66961;51.482;9.160;2023-09-18T10:59:30;6.05;;;1.67;;
77769;SDS011;66961;51.482;9.160;2023-09-18T11:01:56;3.60;;;1.80;;
77769;SDS011;66961;51.482;9.160;2023-09-18T11:04:21;7.43;;;2.30;;
77769;SDS011;66961;51.482;9.160;2023-09-18T11:09:23;5.82;;;1.90;;
77769;SDS011;66961;51.482;9.160;2023-09-18T11:11:52;8.65;;;2.17;;
77769;SDS011;66961;51.482;9.160;2023-09-18T11:14:40;7.00;;;2.38;;
77769;SDS011;66961;51.482;9.160;2023-09-18T11:17:58;4.45;;;1.60;;
77769;SDS011;66961;51.482;9.160;2023-09-18T11:23:09;5.60;;;1.90;;
77769;SDS011;66961;51.482;9.160;2023-09-18T11:25:41;9.52;;;2.30;;
77769;SDS011;66961;51.482;9.160;2023-09-18T11:28:07;5.78;;;2.22;;
77769;SDS011;66961;51.482;9.160;2023-09-18T11:30:37;7.78;;;1.80;;
77769;SDS011;66961;51.482;9.160;2023-09-18T11:33:03;7.13;;;2.28;;
77769;SDS011;66961;51.482;9.160;2023-09-18T11:35:29;8.88;;;2.65;;
77769;SDS011;66961;51.482;9.160;2023-09-18T11:38:05;8.02;;;2.08;;
77769;SDS011;66961;51.482;9.160;2023-09-18T11:40:35;5.75;;;2.25;;
77769;SDS011;66961;51.482;9.160;2023-09-18T11:45:49;6.03;;;1.60;;
77769;SDS011;66961;51.482;9.160;2023-09-18T11:48:15;7.97;;;2.05;;
77769;SDS011;66961;51.482;9.160;2023-09-18T11:50:41;4.75;;;1.65;;
77769;SDS011;66961;51.482;9.160;2023-09-18T11:53:07;5.53;;;1.80;;
77769;SDS011;66961;51.482;9.160;2023-09-18T11:55:33;4.45;;;1.88;;
77769;SDS011;66961;51.482;9.160;2023-09-18T11:57:58;5.10;;;2.22;;
77769;SDS011;66961;51.482;9.160;2023-09-18T12:00:25;4.05;;;1.73;;
77769;SDS011;66961;51.482;9.160;2023-09-18T12:02:50;3.43;;;2.10;;
77769;SDS011;66961;51.482;9.160;2023-09-18T12:05:15;5.37;;;1.60;;
77769;SDS011;66961;51.482;9.160;2023-09-18T12:07:43;3.72;;;1.50;;
77769;SDS011;66961;51.482;9.160;2023-09-18T12:10:09;6.68;;;1.92;;
77769;SDS011;66961;51.482;9.160;2023-09-18T12:12:35;7.03;;;1.60;;
77769;SDS011;66961;51.482;9.160;2023-09-18T12:15:01;4.40;;;1.42;;
77769;SDS011;66961;51.482;9.160;2023-09-18T12:17:26;3.92;;;1.63;;
77769;SDS011;66961;51.482;9.160;2023-09-18T12:19:54;5.57;;;1.45;;
77769;SDS011;66961;51.482;9.160;2023-09-18T12:22:27;4.28;;;1.77;;
77769;SDS011;66961;51.482;9.160;2023-09-18T12:24:53;4.82;;;1.67;;
77769;SDS011;66961;51.482;9.160;2023-09-18T12:27:18;2.42;;;1.48;;
77769;SDS011;66961;51.482;9.160;2023-09-18T12:29:44;3.78;;;1.88;;
77769;SDS011;66961;51.482;9.160;2023-09-18T12:32:09;5.13;;;1.48;;
77769;SDS011;66961;51.482;9.160;2023-09-18T12:34:35;4.40;;;1.40;;
77769;SDS011;66961;51.482;9.160;2023-09-18T12:37:00;4.20;;;1.58;;
77769;SDS011;66961;51.482;9.160;2023-09-18T12:39:25;6.00;;;1.58;;
77769;SDS011;66961;51.482;9.160;2023-09-18T12:41:56;5.32;;;1.40;;
77769;SDS011;66961;51.482;9.160;2023-09-18T12:44:22;3.78;;;1.20;;
77769;SDS011;66961;51.482;9.160;2023-09-18T12:46:48;4.80;;;1.60;;
77769;SDS011;66961;51.482;9.160;2023-09-18T12:51:55;3.25;;;1.17;;
77769;SDS011;66961;51.482;9.160;2023-09-18T12:57:21;6.20;;;1.65;;
77769;SDS011;66961;51.482;9.160;2023-09-18T12:59:46;2.47;;;1.17;;
77769;SDS011;66961;51.482;9.160;2023-09-18T13:02:12;3.13;;;1.75;;
77769;SDS011;66961;51.482;9.160;2023-09-18T13:04:38;3.92;;;1.40;;
77769;SDS011;66961;51.482;9.160;2023-09-18T13:07:08;4.70;;;1.48;;
77769;SDS011;66961;51.482;9.160;2023-09-18T13:09:35;2.35;;;1.10;;
77769;SDS011;66961;51.482;9.160;2023-09-18T13:12:01;2.17;;;1.25;;
77769;SDS011;66961;51.482;9.160;2023-09-18T13:14:26;2.83;;;1.20;;
77769;SDS011;66961;51.482;9.160;2023-09-18T13:16:52;3.78;;;1.20;;
77769;SDS011;66961;51.482;9.160;2023-09-18T13:19:18;3.42;;;1.08;;
77769;SDS011;66961;51.482;9.160;2023-09-18T13:21:47;3.80;;;1.20;;
77769;SDS011;66961;51.482;9.160;2023-09-18T13:24:29;4.22;;;1.27;;
77769;SDS011;66961;51.482;9.160;2023-09-18T13:26:56;1.75;;;0.90;;
77769;SDS011;66961;51.482;9.160;2023-09-18T13:29:22;1.73;;;0.77;;
77769;SDS011;66961;51.482;9.160;2023-09-18T13:31:48;3.88;;;1.00;;
77769;SDS011;66961;51.482;9.160;2023-09-18T13:34:15;2.10;;;1.05;;
77769;SDS011;66961;51.482;9.160;2023-09-18T13:36:40;3.55;;;1.20;;
77769;SDS011;66961;51.482;9.160;2023-09-18T13:39:05;2.73;;;1.37;;
77769;SDS011;66961;51.482;9.160;2023-09-18T13:41:31;3.33;;;1.10;;
77769;SDS011;66961;51.482;9.160;2023-09-18T13:43:56;2.45;;;0.98;;
77769;SDS011;66961;51.482;9.160;2023-09-18T13:46:21;4.00;;;0.95;;
77769;SDS011;66961;51.482;9.160;2023-09-18T13:48:47;2.73;;;1.13;;
77769;SDS011;66961;51.482;9.160;2023-09-18T13:51:12;4.43;;;1.30;;
77769;SDS011;66961;51.482;9.160;2023-09-18T13:53:37;2.40;;;1.33;;
77769;SDS011;66961;51.482;9.160;2023-09-18T13:56:02;6.93;;;0.93;;
77769;SDS011;66961;51.482;9.160;2023-09-18T13:58:28;3.97;;;1.00;;
77769;SDS011;66961;51.482;9.160;2023-09-18T14:00:53;4.10;;;0.97;;
77769;SDS011;66961;51.482;9.160;2023-09-18T14:03:19;2.60;;;0.90;;
77769;SDS011;66961;51.482;9.160;2023-09-18T14:05:45;2.88;;;1.05;;
77769;SDS011;66961;51.482;9.160;2023-09-18T14:08:10;2.95;;;0.98;;
77769;SDS011;66961;51.482;9.160;2023-09-18T14:10:35;2.80;;;1.20;;
77769;SDS011;66961;51.482;9.160;2023-09-18T14:13:01;3.07;;;1.23;;
77769;SDS011;66961;51.482;9.160;2023-09-18T14:15:26;2.42;;;0.98;;
77769;SDS011;66961;51.482;9.160;2023-09-18T14:17:51;3.53;;;1.20;;
77769;SDS011;66961;51.482;9.160;2023-09-18T14:20:17;2.47;;;1.30;;
77769;SDS011;66961;51.482;9.160;2023-09-18T14:22:42;3.03;;;1.00;;
77769;SDS011;66961;51.482;9.160;2023-09-18T14:25:07;5.35;;;1.10;;
77769;SDS011;66961;51.482;9.160;2023-09-18T14:27:33;2.45;;;1.30;;
77769;SDS011;66961;51.482;9.160;2023-09-18T14:29:58;3.88;;;1.00;;
77769;SDS011;66961;51.482;9.160;2023-09-18T14:32:23;5.13;;;1.10;;
77769;SDS011;66961;51.482;9.160;2023-09-18T14:34:49;1.90;;;0.90;;
77769;SDS011;66961;51.482;9.160;2023-09-18T14:37:14;2.20;;;1.00;;
77769;SDS011;66961;51.482;9.160;2023-09-18T14:39:39;3.13;;;1.00;;
77769;SDS011;66961;51.482;9.160;2023-09-18T14:42:04;1.77;;;0.90;;
77769;SDS011;66961;51.482;9.160;2023-09-18T14:44:30;3.35;;;1.20;;
77769;SDS011;66961;51.482;9.160;2023-09-18T14:46:55;3.22;;;1.10;;
77769;SDS011;66961;51.482;9.160;2023-09-18T14:49:21;1.50;;;1.00;;
77769;SDS011;66961;51.482;9.160;2023-09-18T14:51:46;4.00;;;1.15;;
77769;SDS011;66961;51.482;9.160;2023-09-18T14:54:11;4.53;;;1.20;;
77769;SDS011;66961;51.482;9.160;2023-09-18T14:56:37;4.75;;;1.15;;
77769;SDS011;66961;51.482;9.160;2023-09-18T14:59:02;3.42;;;1.15;;